CYWA

Details ICAO CYWA (YWA)
Name PETAWAWA
Region Canada
Timezone America/Toronto (UTC-5.0)
Plans Departing 0
Arriving 1
Stats Elevation 427 ft / 130 m (AMSL)
Location 45.951943° -77.319029°
Runways 1
Magnetic Variation 12.459° W
Sunrise 2017-12-17 12:47:12 UTC / 2017-12-17 07:47:12 Local
Sunset 2017-12-17 21:26:32 UTC / 2017-12-17 16:26:32 Local
Advertisement - Login to hide

Runways

ID Width Length Bearing (true) Bearing (mag) Surface Threshold Offset Overrun Length
17 75 ft / 23 m 3,835 ft / 1,169 m 147.78° 160.24° Grass 0 ft / 0 m 0 ft / 0 m
35 75 ft / 23 m 3,835 ft / 1,169 m 327.79° 340.25° Grass 0 ft / 0 m 0 ft / 0 m

Map

Weather


0- 5 10 15 20 25 30 35+ Temperature / ° C

Clouds and Precipitation
Forecast for 2017-12-17 12:00 UTC. Updated an hour ago

Ground ~20,000 ft ~40,000 ft Winds

METAR

CYWA 171200Z AUTO 27005KT 9SM CLR M24/M28 A3035 RMK SLP292

TAF

TAF CYWA 171130Z 1712/1724 VRB03KT P6SM SKC FM172100 VRB03KT P6SM BKN150 RMK FCST BASED ON AUTO OBS. NXT FCST BY 171800Z

Frequencies

Tower 126.40 MHz 427 OPS
Tower 126.40 MHz RANGE CON
Tower 126.20 MHz 427 OPS
Warning: Do not use this data for real-world aviation or navigation. No guarantee of current accuracy is given.